sensor_id;sensor_type;location;lat;lon;timestamp;pressure;altitude;pressure_sealevel;temperature;humidity
42433;BME280;28071;48.232;20.668;2023-06-14T00:02:28;99366.41;;;9.87;100.00
42433;BME280;28071;48.232;20.668;2023-06-14T00:07:37;99347.28;;;9.53;100.00
42433;BME280;28071;48.232;20.668;2023-06-14T00:12:38;99309.44;;;9.33;100.00
42433;BME280;28071;48.232;20.668;2023-06-14T00:17:39;99361.91;;;9.62;100.00
42433;BME280;28071;48.232;20.668;2023-06-14T00:22:39;99290.69;;;9.28;100.00
42433;BME280;28071;48.232;20.668;2023-06-14T00:27:40;99352.97;;;9.57;100.00
42433;BME280;28071;48.232;20.668;2023-06-14T00:32:40;99360.28;;;9.61;100.00
42433;BME280;28071;48.232;20.668;2023-06-14T00:37:43;99360.06;;;9.38;100.00
42433;BME280;28071;48.232;20.668;2023-06-14T00:42:43;99349.22;;;9.39;100.00
42433;BME280;28071;48.232;20.668;2023-06-14T00:47:45;99325.09;;;9.16;100.00
42433;BME280;28071;48.232;20.668;2023-06-14T00:52:46;99347.94;;;9.17;100.00
42433;BME280;28071;48.232;20.668;2023-06-14T00:57:48;99349.19;;;9.14;100.00
42433;BME280;28071;48.232;20.668;2023-06-14T01:02:49;99349.88;;;8.97;100.00
42433;BME280;28071;48.232;20.668;2023-06-14T01:08:14;99346.38;;;9.03;100.00
42433;BME280;28071;48.232;20.668;2023-06-14T01:13:35;99345.53;;;9.09;100.00
42433;BME280;28071;48.232;20.668;2023-06-14T01:18:36;99343.38;;;8.93;100.00
42433;BME280;28071;48.232;20.668;2023-06-14T01:23:36;99345.09;;;8.74;100.00
42433;BME280;28071;48.232;20.668;2023-06-14T01:28:37;99344.88;;;8.69;100.00
42433;BME280;28071;48.232;20.668;2023-06-14T01:33:37;99322.88;;;8.68;100.00
42433;BME280;28071;48.232;20.668;2023-06-14T01:38:38;99320.66;;;8.58;100.00
42433;BME280;28071;48.232;20.668;2023-06-14T01:43:40;99343.44;;;8.79;100.00
42433;BME280;28071;48.232;20.668;2023-06-14T01:48:42;99341.03;;;8.71;100.00
42433;BME280;28071;48.232;20.668;2023-06-14T01:53:43;99339.22;;;8.65;100.00
42433;BME280;28071;48.232;20.668;2023-06-14T01:58:43;99342.75;;;8.90;100.00
42433;BME280;28071;48.232;20.668;2023-06-14T02:03:45;99351.72;;;8.96;100.00
42433;BME280;28071;48.232;20.668;2023-06-14T02:08:46;99359.44;;;8.98;100.00
42433;BME280;28071;48.232;20.668;2023-06-14T02:13:47;99357.50;;;8.80;100.00
42433;BME280;28071;48.232;20.668;2023-06-14T02:18:47;99363.78;;;8.92;100.00
42433;BME280;28071;48.232;20.668;2023-06-14T02:23:48;99364.88;;;8.71;100.00
42433;BME280;28071;48.232;20.668;2023-06-14T02:28:49;99368.25;;;8.47;100.00
42433;BME280;28071;48.232;20.668;2023-06-14T02:33:49;99369.41;;;8.64;100.00
42433;BME280;28071;48.232;20.668;2023-06-14T02:38:50;99348.22;;;8.51;100.00
42433;BME280;28071;48.232;20.668;2023-06-14T02:43:50;99362.63;;;8.68;100.00
42433;BME280;28071;48.232;20.668;2023-06-14T02:48:51;99370.75;;;8.80;100.00
42433;BME280;28071;48.232;20.668;2023-06-14T02:53:51;99374.19;;;8.87;100.00
42433;BME280;28071;48.232;20.668;2023-06-14T02:58:52;99376.28;;;8.78;100.00
42433;BME280;28071;48.232;20.668;2023-06-14T03:03:53;99376.44;;;8.83;100.00
42433;BME280;28071;48.232;20.668;2023-06-14T03:08:53;99373.63;;;8.78;100.00
42433;BME280;28071;48.232;20.668;2023-06-14T03:13:55;99377.88;;;8.86;100.00
42433;BME280;28071;48.232;20.668;2023-06-14T03:18:56;99370.91;;;8.92;100.00
42433;BME280;28071;48.232;20.668;2023-06-14T03:23:56;99375.56;;;9.03;100.00
42433;BME280;28071;48.232;20.668;2023-06-14T03:28:57;99375.56;;;9.03;100.00
42433;BME280;28071;48.232;20.668;2023-06-14T03:33:58;99380.31;;;9.26;100.00
42433;BME280;28071;48.232;20.668;2023-06-14T03:38:58;99355.28;;;9.15;100.00
42433;BME280;28071;48.232;20.668;2023-06-14T03:43:59;99366.75;;;9.40;100.00
42433;BME280;28071;48.232;20.668;2023-06-14T03:48:59;99382.06;;;9.45;100.00
42433;BME280;28071;48.232;20.668;2023-06-14T03:54:00;99387.09;;;9.53;100.00
42433;BME280;28071;48.232;20.668;2023-06-14T03:59:01;99382.72;;;9.65;100.00
42433;BME280;28071;48.232;20.668;2023-06-14T04:04:02;99395.34;;;9.70;100.00
42433;BME280;28071;48.232;20.668;2023-06-14T04:09:03;99393.78;;;9.87;100.00
42433;BME280;28071;48.232;20.668;2023-06-14T04:14:03;99383.56;;;9.91;100.00
42433;BME280;28071;48.232;20.668;2023-06-14T04:19:04;99387.81;;;10.17;100.00
42433;BME280;28071;48.232;20.668;2023-06-14T04:24:04;99387.97;;;10.22;100.00
42433;BME280;28071;48.232;20.668;2023-06-14T04:29:05;99377.22;;;10.35;100.00
42433;BME280;28071;48.232;20.668;2023-06-14T04:34:06;99381.81;;;10.46;100.00
42433;BME280;28071;48.232;20.668;2023-06-14T04:39:07;99384.56;;;10.58;100.00
42433;BME280;28071;48.232;20.668;2023-06-14T04:44:07;99381.50;;;10.73;100.00
42433;BME280;28071;48.232;20.668;2023-06-14T04:49:07;99383.13;;;10.92;100.00
42433;BME280;28071;48.232;20.668;2023-06-14T04:54:09;99383.22;;;11.04;100.00
42433;BME280;28071;48.232;20.668;2023-06-14T04:59:15;99377.03;;;11.22;100.00
42433;BME280;28071;48.232;20.668;2023-06-14T05:04:18;99383.59;;;11.49;100.00
42433;BME280;28071;48.232;20.668;2023-06-14T05:09:19;99399.16;;;11.76;100.00
42433;BME280;28071;48.232;20.668;2023-06-14T05:14:19;99409.78;;;11.94;100.00
42433;BME280;28071;48.232;20.668;2023-06-14T05:19:20;99413.63;;;12.21;100.00
42433;BME280;28071;48.232;20.668;2023-06-14T05:24:20;99417.09;;;12.45;100.00
42433;BME280;28071;48.232;20.668;2023-06-14T05:29:21;99402.13;;;12.44;100.00
42433;BME280;28071;48.232;20.668;2023-06-14T05:34:21;99417.19;;;12.74;100.00
42433;BME280;28071;48.232;20.668;2023-06-14T05:39:22;99401.84;;;12.93;100.00
42433;BME280;28071;48.232;20.668;2023-06-14T05:44:24;99395.75;;;13.09;100.00
42433;BME280;28071;48.232;20.668;2023-06-14T05:49:24;99414.09;;;13.46;100.00
42433;BME280;28071;48.232;20.668;2023-06-14T05:54:25;99418.81;;;13.72;100.00
42433;BME280;28071;48.232;20.668;2023-06-14T05:59:26;99418.78;;;14.01;100.00
42433;BME280;28071;48.232;20.668;2023-06-14T06:04:26;99409.94;;;14.17;100.00
42433;BME280;28071;48.232;20.668;2023-06-14T06:09:27;99405.19;;;14.41;100.00
42433;BME280;28071;48.232;20.668;2023-06-14T06:14:27;99421.69;;;14.71;100.00
42433;BME280;28071;48.232;20.668;2023-06-14T06:19:28;99427.25;;;15.09;100.00
42433;BME280;28071;48.232;20.668;2023-06-14T06:24:28;99430.97;;;15.30;100.00
42433;BME280;28071;48.232;20.668;2023-06-14T06:29:28;99418.41;;;15.57;100.00
42433;BME280;28071;48.232;20.668;2023-06-14T06:34:29;99423.28;;;15.87;100.00
42433;BME280;28071;48.232;20.668;2023-06-14T06:39:30;99425.69;;;16.21;100.00
42433;BME280;28071;48.232;20.668;2023-06-14T06:44:30;99423.69;;;16.43;100.00
42433;BME280;28071;48.232;20.668;2023-06-14T06:49:30;99443.22;;;16.76;99.37
42433;BME280;28071;48.232;20.668;2023-06-14T06:54:31;99439.06;;;17.05;93.97
42433;BME280;28071;48.232;20.668;2023-06-14T06:59:32;99435.88;;;17.13;94.32
42433;BME280;28071;48.232;20.668;2023-06-14T07:04:33;99442.41;;;17.43;93.09
42433;BME280;28071;48.232;20.668;2023-06-14T07:09:33;99449.19;;;17.61;91.42
42433;BME280;28071;48.232;20.668;2023-06-14T07:14:33;99451.13;;;17.75;91.67
42433;BME280;28071;48.232;20.668;2023-06-14T07:19:34;99444.44;;;18.14;88.87
42433;BME280;28071;48.232;20.668;2023-06-14T07:24:35;99448.44;;;18.42;88.55
42433;BME280;28071;48.232;20.668;2023-06-14T07:29:36;99430.94;;;18.39;86.53
42433;BME280;28071;48.232;20.668;2023-06-14T07:34:37;99441.91;;;18.83;85.18
42433;BME280;28071;48.232;20.668;2023-06-14T07:39:37;99436.72;;;19.02;83.32
42433;BME280;28071;48.232;20.668;2023-06-14T07:44:38;99438.50;;;19.27;82.82
42433;BME280;28071;48.232;20.668;2023-06-14T07:49:38;99439.97;;;19.54;82.58
42433;BME280;28071;48.232;20.668;2023-06-14T07:54:39;99424.72;;;19.78;79.35
42433;BME280;28071;48.232;20.668;2023-06-14T07:59:41;99436.81;;;20.20;79.00
42433;BME280;28071;48.232;20.668;2023-06-14T08:04:41;99421.81;;;20.33;77.85
42433;BME280;28071;48.232;20.668;2023-06-14T08:09:42;99430.31;;;20.21;77.57
42433;BME280;28071;48.232;20.668;2023-06-14T08:14:43;99428.34;;;20.61;75.77
42433;BME280;28071;48.232;20.668;2023-06-14T08:19:43;99452.09;;;20.64;73.22
42433;BME280;28071;48.232;20.668;2023-06-14T08:24:44;99445.13;;;21.05;74.32
42433;BME280;28071;48.232;20.668;2023-06-14T08:29:44;99430.50;;;21.06;72.57
42433;BME280;28071;48.232;20.668;2023-06-14T08:34:45;99450.47;;;21.35;73.57
42433;BME280;28071;48.232;20.668;2023-06-14T08:39:46;99454.59;;;21.70;72.33
42433;BME280;28071;48.232;20.668;2023-06-14T08:44:46;99440.22;;;22.07;73.40
42433;BME280;28071;48.232;20.668;2023-06-14T08:49:47;99460.31;;;22.52;66.56
42433;BME280;28071;48.232;20.668;2023-06-14T08:54:51;99419.03;;;22.41;67.17
42433;BME280;28071;48.232;20.668;2023-06-14T08:59:51;99436.56;;;23.04;63.17
42433;BME280;28071;48.232;20.668;2023-06-14T09:04:53;99436.28;;;23.06;66.77
42433;BME280;28071;48.232;20.668;2023-06-14T09:10:13;99439.97;;;22.96;64.72
42433;BME280;28071;48.232;20.668;2023-06-14T09:15:14;99461.34;;;23.25;62.04
42433;BME280;28071;48.232;20.668;2023-06-14T09:20:14;99429.19;;;22.63;63.91
42433;BME280;28071;48.232;20.668;2023-06-14T09:25:18;99438.53;;;22.71;64.50
42433;BME280;28071;48.232;20.668;2023-06-14T09:30:20;99453.53;;;23.10;62.67
42433;BME280;28071;48.232;20.668;2023-06-14T09:35:21;99461.16;;;23.85;58.31
42433;BME280;28071;48.232;20.668;2023-06-14T09:40:23;99439.88;;;23.29;60.08
42433;BME280;28071;48.232;20.668;2023-06-14T09:45:24;99452.75;;;23.73;59.06
42433;BME280;28071;48.232;20.668;2023-06-14T09:50:29;99457.00;;;24.10;57.97
42433;BME280;28071;48.232;20.668;2023-06-14T09:55:30;99431.31;;;23.71;57.96
42433;BME280;28071;48.232;20.668;2023-06-14T10:00:34;99456.47;;;24.22;55.77
42433;BME280;28071;48.232;20.668;2023-06-14T10:05:36;99411.81;;;24.85;53.94
42433;BME280;28071;48.232;20.668;2023-06-14T10:10:39;99452.47;;;25.38;53.06
42433;BME280;28071;48.232;20.668;2023-06-14T10:16:07;99452.53;;;25.64;53.50
42433;BME280;28071;48.232;20.668;2023-06-14T10:21:28;99449.81;;;25.90;49.95
42433;BME280;28071;48.232;20.668;2023-06-14T10:26:32;99447.50;;;26.36;49.72
42433;BME280;28071;48.232;20.668;2023-06-14T10:31:47;99437.38;;;26.36;48.59
42433;BME280;28071;48.232;20.668;2023-06-14T10:37:12;99428.13;;;26.20;48.72
42433;BME280;28071;48.232;20.668;2023-06-14T10:42:13;99423.69;;;26.62;48.22
42433;BME280;28071;48.232;20.668;2023-06-14T10:52:28;99414.94;;;26.48;45.43
42433;BME280;28071;48.232;20.668;2023-06-14T10:57:29;99417.91;;;25.99;48.05
42433;BME280;28071;48.232;20.668;2023-06-14T11:13:07;99417.19;;;25.07;51.97
42433;BME280;28071;48.232;20.668;2023-06-14T11:18:08;99419.06;;;24.89;53.74
42433;BME280;28071;48.232;20.668;2023-06-14T11:23:12;99383.38;;;24.43;54.04
42433;BME280;28071;48.232;20.668;2023-06-14T11:28:12;99406.19;;;25.21;52.81
42433;BME280;28071;48.232;20.668;2023-06-14T11:33:17;99405.22;;;26.04;50.28
42433;BME280;28071;48.232;20.668;2023-06-14T11:38:21;99405.91;;;26.00;49.88
42433;BME280;28071;48.232;20.668;2023-06-14T11:43:21;99400.44;;;25.49;51.23
42433;BME280;28071;48.232;20.668;2023-06-14T11:48:22;99378.16;;;25.21;50.21
42433;BME280;28071;48.232;20.668;2023-06-14T11:53:22;99396.91;;;26.00;46.98
42433;BME280;28071;48.232;20.668;2023-06-14T11:58:23;99391.28;;;25.96;47.30
42433;BME280;28071;48.232;20.668;2023-06-14T12:03:24;99400.59;;;25.26;50.66
42433;BME280;28071;48.232;20.668;2023-06-14T12:08:38;99384.00;;;24.79;48.64
42433;BME280;28071;48.232;20.668;2023-06-14T12:13:40;99394.00;;;24.61;51.40
42433;BME280;28071;48.232;20.668;2023-06-14T12:18:41;99397.28;;;24.41;52.63
42433;BME280;28071;48.232;20.668;2023-06-14T12:23:46;99389.47;;;23.95;52.97
42433;BME280;28071;48.232;20.668;2023-06-14T12:28:51;99381.97;;;23.56;55.39
42433;BME280;28071;48.232;20.668;2023-06-14T12:33:51;99384.63;;;23.47;54.06
42433;BME280;28071;48.232;20.668;2023-06-14T12:38:52;99371.16;;;23.42;55.36
42433;BME280;28071;48.232;20.668;2023-06-14T12:43:55;99364.19;;;23.49;55.73
42433;BME280;28071;48.232;20.668;2023-06-14T12:48:58;99344.56;;;22.94;57.96
42433;BME280;28071;48.232;20.668;2023-06-14T12:53:58;99364.25;;;22.86;58.15
42433;BME280;28071;48.232;20.668;2023-06-14T12:58:59;99390.25;;;22.87;55.75
42433;BME280;28071;48.232;20.668;2023-06-14T13:03:59;99364.97;;;22.91;57.77
42433;BME280;28071;48.232;20.668;2023-06-14T13:09:00;99370.22;;;24.36;52.32
42433;BME280;28071;48.232;20.668;2023-06-14T13:14:01;99374.16;;;25.27;49.98
42433;BME280;28071;48.232;20.668;2023-06-14T13:19:02;99385.25;;;25.48;47.93
42433;BME280;28071;48.232;20.668;2023-06-14T13:24:02;99388.28;;;26.53;45.42
42433;BME280;28071;48.232;20.668;2023-06-14T13:29:03;99392.84;;;26.70;45.36
42433;BME280;28071;48.232;20.668;2023-06-14T13:34:03;99384.22;;;26.04;48.10
42433;BME280;28071;48.232;20.668;2023-06-14T13:39:04;99377.50;;;25.15;49.22
42433;BME280;28071;48.232;20.668;2023-06-14T13:44:05;99386.53;;;24.84;50.20
42433;BME280;28071;48.232;20.668;2023-06-14T13:49:05;99397.75;;;24.91;50.57
42433;BME280;28071;48.232;20.668;2023-06-14T13:54:06;99399.88;;;24.55;51.96
42433;BME280;28071;48.232;20.668;2023-06-14T13:59:06;99394.00;;;24.30;51.33
42433;BME280;28071;48.232;20.668;2023-06-14T14:04:07;99373.13;;;23.64;53.22
42433;BME280;28071;48.232;20.668;2023-06-14T14:09:08;99388.75;;;23.80;55.15
42433;BME280;28071;48.232;20.668;2023-06-14T14:14:09;99389.28;;;23.69;56.04
42433;BME280;28071;48.232;20.668;2023-06-14T14:19:10;99367.94;;;23.40;57.90
42433;BME280;28071;48.232;20.668;2023-06-14T14:24:11;99393.03;;;23.23;57.56
42433;BME280;28071;48.232;20.668;2023-06-14T14:29:11;99380.59;;;22.81;60.93
42433;BME280;28071;48.232;20.668;2023-06-14T14:34:12;99367.03;;;22.67;62.91
42433;BME280;28071;48.232;20.668;2023-06-14T14:39:12;99408.22;;;22.83;64.86
42433;BME280;28071;48.232;20.668;2023-06-14T14:44:13;99386.41;;;22.74;69.22
42433;BME280;28071;48.232;20.668;2023-06-14T14:49:13;99373.28;;;22.95;68.81
42433;BME280;28071;48.232;20.668;2023-06-14T14:54:14;99374.25;;;24.16;59.20
42433;BME280;28071;48.232;20.668;2023-06-14T14:59:14;99374.50;;;24.68;55.96
42433;BME280;28071;48.232;20.668;2023-06-14T15:04:15;99358.59;;;24.44;53.73
42433;BME280;28071;48.232;20.668;2023-06-14T15:09:15;99356.94;;;24.34;51.81
42433;BME280;28071;48.232;20.668;2023-06-14T15:14:16;99363.03;;;24.40;55.19
42433;BME280;28071;48.232;20.668;2023-06-14T15:19:18;99330.28;;;24.14;55.22
42433;BME280;28071;48.232;20.668;2023-06-14T15:24:18;99353.06;;;23.96;55.07
42433;BME280;28071;48.232;20.668;2023-06-14T15:29:18;99359.94;;;24.02;55.58
42433;BME280;28071;48.232;20.668;2023-06-14T15:34:19;99366.41;;;24.15;56.28
42433;BME280;28071;48.232;20.668;2023-06-14T15:39:20;99336.63;;;24.09;54.88
42433;BME280;28071;48.232;20.668;2023-06-14T15:44:20;99333.41;;;24.78;51.24
42433;BME280;28071;48.232;20.668;2023-06-14T15:49:21;99352.16;;;24.88;54.28
42433;BME280;28071;48.232;20.668;2023-06-14T15:54:21;99354.94;;;23.95;53.42
42433;BME280;28071;48.232;20.668;2023-06-14T15:59:21;99348.16;;;24.06;53.86
42433;BME280;28071;48.232;20.668;2023-06-14T16:04:22;99364.00;;;23.82;54.98
42433;BME280;28071;48.232;20.668;2023-06-14T16:09:22;99366.53;;;23.42;57.25
42433;BME280;28071;48.232;20.668;2023-06-14T16:14:23;99340.88;;;23.12;60.29
42433;BME280;28071;48.232;20.668;2023-06-14T16:19:23;99357.53;;;23.19;60.53
42433;BME280;28071;48.232;20.668;2023-06-14T16:24:24;99348.91;;;23.53;63.31
42433;BME280;28071;48.232;20.668;2023-06-14T16:29:24;99340.81;;;23.40;61.80
42433;BME280;28071;48.232;20.668;2023-06-14T16:34:25;99363.56;;;23.30;63.40
42433;BME280;28071;48.232;20.668;2023-06-14T16:39:26;99365.69;;;23.19;63.69
42433;BME280;28071;48.232;20.668;2023-06-14T16:44:26;99327.09;;;22.86;62.54
42433;BME280;28071;48.232;20.668;2023-06-14T16:49:27;99371.28;;;22.87;61.70
42433;BME280;28071;48.232;20.668;2023-06-14T16:54:28;99376.50;;;22.69;62.96
42433;BME280;28071;48.232;20.668;2023-06-14T16:59:28;99363.72;;;22.42;62.71
42433;BME280;28071;48.232;20.668;2023-06-14T17:04:30;99365.63;;;22.28;62.96
42433;BME280;28071;48.232;20.668;2023-06-14T17:09:31;99386.91;;;22.02;64.18
42433;BME280;28071;48.232;20.668;2023-06-14T17:14:31;99402.06;;;22.03;69.65
42433;BME280;28071;48.232;20.668;2023-06-14T17:19:32;99391.06;;;21.81;76.33
42433;BME280;28071;48.232;20.668;2023-06-14T17:24:33;99407.59;;;21.79;78.52
42433;BME280;28071;48.232;20.668;2023-06-14T17:29:33;99403.22;;;21.46;80.79
42433;BME280;28071;48.232;20.668;2023-06-14T17:34:34;99415.97;;;21.21;81.81
42433;BME280;28071;48.232;20.668;2023-06-14T17:39:34;99412.53;;;20.73;84.83
42433;BME280;28071;48.232;20.668;2023-06-14T17:44:36;99414.91;;;20.21;86.24
42433;BME280;28071;48.232;20.668;2023-06-14T17:49:36;99410.63;;;19.86;89.12
42433;BME280;28071;48.232;20.668;2023-06-14T17:54:37;99417.53;;;19.63;91.91
42433;BME280;28071;48.232;20.668;2023-06-14T17:59:37;99422.34;;;19.22;95.53
42433;BME280;28071;48.232;20.668;2023-06-14T18:04:38;99432.19;;;18.88;98.64
42433;BME280;28071;48.232;20.668;2023-06-14T18:09:38;99436.00;;;18.66;99.91
42433;BME280;28071;48.232;20.668;2023-06-14T18:14:39;99408.88;;;18.17;100.00
42433;BME280;28071;48.232;20.668;2023-06-14T18:19:39;99441.44;;;18.20;100.00
42433;BME280;28071;48.232;20.668;2023-06-14T18:24:42;99441.47;;;17.85;100.00
42433;BME280;28071;48.232;20.668;2023-06-14T18:29:42;99433.25;;;17.34;100.00
42433;BME280;28071;48.232;20.668;2023-06-14T18:34:43;99436.34;;;17.00;100.00
42433;BME280;28071;48.232;20.668;2023-06-14T18:39:43;99440.88;;;16.89;100.00
42433;BME280;28071;48.232;20.668;2023-06-14T18:44:43;99479.09;;;17.02;100.00
42433;BME280;28071;48.232;20.668;2023-06-14T18:49:44;99476.03;;;16.83;100.00
42433;BME280;28071;48.232;20.668;2023-06-14T18:54:44;99485.22;;;16.50;100.00
42433;BME280;28071;48.232;20.668;2023-06-14T18:59:45;99493.31;;;16.23;100.00
42433;BME280;28071;48.232;20.668;2023-06-14T19:04:46;99481.34;;;16.03;100.00
42433;BME280;28071;48.232;20.668;2023-06-14T19:09:46;99507.53;;;15.91;100.00
42433;BME280;28071;48.232;20.668;2023-06-14T19:14:47;99517.22;;;15.70;100.00
42433;BME280;28071;48.232;20.668;2023-06-14T19:19:47;99525.75;;;15.45;100.00
42433;BME280;28071;48.232;20.668;2023-06-14T19:24:48;99532.13;;;15.39;100.00
42433;BME280;28071;48.232;20.668;2023-06-14T19:29:48;99514.84;;;15.08;100.00
42433;BME280;28071;48.232;20.668;2023-06-14T19:34:49;99542.59;;;15.02;100.00
42433;BME280;28071;48.232;20.668;2023-06-14T19:39:49;99537.16;;;14.75;100.00
42433;BME280;28071;48.232;20.668;2023-06-14T19:44:50;99530.97;;;14.58;100.00
42433;BME280;28071;48.232;20.668;2023-06-14T19:49:50;99543.63;;;14.62;100.00
42433;BME280;28071;48.232;20.668;2023-06-14T19:54:51;99549.03;;;14.34;100.00
42433;BME280;28071;48.232;20.668;2023-06-14T19:59:51;99544.97;;;14.14;100.00
42433;BME280;28071;48.232;20.668;2023-06-14T20:04:51;99546.84;;;14.14;100.00
42433;BME280;28071;48.232;20.668;2023-06-14T20:09:52;99545.25;;;14.01;100.00
42433;BME280;28071;48.232;20.668;2023-06-14T20:14:52;99541.25;;;13.87;100.00
42433;BME280;28071;48.232;20.668;2023-06-14T20:19:53;99545.41;;;13.66;100.00
42433;BME280;28071;48.232;20.668;2023-06-14T20:24:53;99542.41;;;13.51;100.00
42433;BME280;28071;48.232;20.668;2023-06-14T20:29:54;99550.13;;;13.47;100.00
42433;BME280;28071;48.232;20.668;2023-06-14T20:34:55;99551.19;;;13.35;100.00
42433;BME280;28071;48.232;20.668;2023-06-14T20:39:56;99553.16;;;13.27;100.00
42433;BME280;28071;48.232;20.668;2023-06-14T20:45:05;99552.00;;;13.35;100.00
42433;BME280;28071;48.232;20.668;2023-06-14T20:50:07;99549.22;;;13.18;100.00
42433;BME280;28071;48.232;20.668;2023-06-14T20:55:08;99544.00;;;13.00;100.00
42433;BME280;28071;48.232;20.668;2023-06-14T21:00:09;99529.72;;;12.83;100.00
42433;BME280;28071;48.232;20.668;2023-06-14T21:05:12;99552.34;;;12.92;100.00
42433;BME280;28071;48.232;20.668;2023-06-14T21:10:12;99550.03;;;12.84;100.00
42433;BME280;28071;48.232;20.668;2023-06-14T21:15:13;99557.56;;;12.75;100.00
42433;BME280;28071;48.232;20.668;2023-06-14T21:20:13;99496.66;;;12.25;100.00
42433;BME280;28071;48.232;20.668;2023-06-14T21:25:14;99547.47;;;12.54;100.00
42433;BME280;28071;48.232;20.668;2023-06-14T21:30:15;99545.47;;;12.37;100.00
42433;BME280;28071;48.232;20.668;2023-06-14T21:35:16;99543.59;;;12.38;100.00
42433;BME280;28071;48.232;20.668;2023-06-14T21:40:17;99547.66;;;12.29;100.00
42433;BME280;28071;48.232;20.668;2023-06-14T21:45:18;99514.56;;;12.06;100.00
42433;BME280;28071;48.232;20.668;2023-06-14T21:50:18;99538.03;;;12.28;100.00
42433;BME280;28071;48.232;20.668;2023-06-14T21:55:19;99541.16;;;12.25;100.00
42433;BME280;28071;48.232;20.668;2023-06-14T22:00:23;99536.50;;;12.20;100.00
42433;BME280;28071;48.232;20.668;2023-06-14T22:05:24;99494.22;;;11.82;100.00
42433;BME280;28071;48.232;20.668;2023-06-14T22:10:25;99554.41;;;12.01;100.00
42433;BME280;28071;48.232;20.668;2023-06-14T22:15:26;99549.91;;;12.02;100.00
42433;BME280;28071;48.232;20.668;2023-06-14T22:20:27;99511.03;;;11.82;100.00
42433;BME280;28071;48.232;20.668;2023-06-14T22:25:30;99501.09;;;11.71;100.00
42433;BME280;28071;48.232;20.668;2023-06-14T22:30:30;99541.78;;;11.97;100.00
42433;BME280;28071;48.232;20.668;2023-06-14T22:35:32;99520.22;;;11.98;100.00
42433;BME280;28071;48.232;20.668;2023-06-14T22:40:33;99548.25;;;11.89;100.00
42433;BME280;28071;48.232;20.668;2023-06-14T22:45:33;99543.50;;;11.73;100.00
42433;BME280;28071;48.232;20.668;2023-06-14T22:50:36;99535.22;;;11.62;100.00
42433;BME280;28071;48.232;20.668;2023-06-14T22:55:37;99540.13;;;11.65;100.00
42433;BME280;28071;48.232;20.668;2023-06-14T23:00:37;99537.53;;;11.59;100.00
42433;BME280;28071;48.232;20.668;2023-06-14T23:05:39;99523.34;;;11.47;100.00
42433;BME280;28071;48.232;20.668;2023-06-14T23:10:41;99492.97;;;11.36;100.00
42433;BME280;28071;48.232;20.668;2023-06-14T23:15:42;99534.41;;;11.62;100.00
42433;BME280;28071;48.232;20.668;2023-06-14T23:20:43;99519.75;;;11.41;100.00
42433;BME280;28071;48.232;20.668;2023-06-14T23:25:43;99531.41;;;11.58;100.00
42433;BME280;28071;48.232;20.668;2023-06-14T23:30:45;99536.00;;;11.51;100.00
42433;BME280;28071;48.232;20.668;2023-06-14T23:35:46;99539.31;;;11.47;100.00
42433;BME280;28071;48.232;20.668;2023-06-14T23:40:47;99536.41;;;11.48;100.00
42433;BME280;28071;48.232;20.668;2023-06-14T23:45:50;99510.47;;;11.25;100.00
42433;BME280;28071;48.232;20.668;2023-06-14T23:50:55;99542.59;;;11.30;100.00
42433;BME280;28071;48.232;20.668;2023-06-14T23:55:56;99539.56;;;11.27;100.00
